Aeroporto :
LOGIN :

Iscrizione | Disclaimer

   EN    FR    IT 

 










Sommario :    VFR   VFR Marginale   IFR   IFR Intensivo   IFR Molto Intensivo
Visibilità : 
Base nubi : 
>= 8 km
>= 3000ft
5 / 8 km
1000 / 3000 ft
1500m / 5 km
500 / 1000 ft
800 / 1500m
200 / 500 ft
< 800m
< 200 ft
Simboli :   Temporali  Nebbia  Neve Forte  Precipitazioni Forti  Vento > 20 kt
SIGMETs :   Varie  Temporali  Ghiacco  Turbolenza  Onda orograficha  Ceneri Vulcaniche






- Altitudine del aeroporto : 297 ft
- Codice IATA : BBU


LRBS - Bucarest - Baneasa Aurel Vlaicu

ULTIMO METAR :
  • 282200Z 29003KT CAVOK 13/11 Q1013 NOSIG

METARs OBSOLETI :
  • 282130Z 26003KT 220V290 CAVOK 14/11 Q1013 NOSIG
  • 282100Z 36003KT 320V040 CAVOK 14/11 Q1013 NOSIG
  • 282030Z VRB02KT CAVOK 15/12 Q1013 NOSIG
  • 282000Z 01003KT 340V040 CAVOK 15/12 Q1014 NOSIG
  • 281930Z 04003KT 010V070 CAVOK 15/12 Q1013 NOSIG
  • 281900Z 02005KT CAVOK 15/11 Q1013 NOSIG
  • 281830Z VRB02KT CAVOK 16/10 Q1013 NOSIG
  • 281800Z 05004G17KT 310V100 9999 FEW050CB 16/11 Q1013 NOSIG
  • 281730Z 06006KT 010V090 9999 FEW050CB 17/10 Q1013 NOSIG

TAF TAF LRBS
Valido dal 28 a 18 ore il 29 a 18 ore UTC


281700Z 2818/2918 VRB04KT 9999 FEW040CB
PROB30
TEMPO 2818/2820 5000 -SHRA
BECMG 2820/2822 NSC
PROB30
TEMPO 2823/2904 BKN010
TEMPO 2904/2910 5000 SHRA BKN010 SCT040CB
TEMPO 2914/2918 VRB20KT 5000 TSRA SCT015 BKN030CB



MetMap, La meteo Aeronautica in un colpo d'occhio ! - Copyright ORBIFLY Dicembre 2007 - Disclaimer

ORBIFLY MET'MAP TEAM :

Programmazione e sviluppo : Alexandra Zaïnal
Concezione : Baudouin d'Aumeries
Supporto tecnico e logistico : Manuel Goepfert
Aiuto : Marc-Olivier Méhu
Aiuto per la traduzione : Arnaldo La Scala




FONTI E CREDITI :

   NOAA